createdAt,value
2019-03-24T00:01:49.743Z,29.50
2019-03-24T00:04:19.622Z,18.83
2019-03-24T00:06:49.424Z,51.47
2019-03-24T00:09:19.296Z,36.63
2019-03-24T00:11:49.089Z,18.17
2019-03-24T00:14:18.849Z,34.80
2019-03-24T00:16:48.729Z,40.67
2019-03-24T00:19:18.684Z,35.07
2019-03-24T00:21:48.455Z,22.90
2019-03-24T00:24:18.398Z,9.00
2019-03-24T00:26:48.266Z,36.73
2019-03-24T00:29:18.198Z,33.47
2019-03-24T00:31:48.112Z,29.23
2019-03-24T00:34:18.130Z,28.80
2019-03-24T00:36:47.931Z,45.40
2019-03-24T00:39:17.831Z,49.97
2019-03-24T00:41:47.608Z,18.00
2019-03-24T00:44:17.592Z,24.23
2019-03-24T00:46:47.394Z,52.87
2019-03-24T00:49:17.307Z,46.27
2019-03-24T00:51:47.112Z,26.27
2019-03-24T00:54:16.972Z,25.60
2019-03-24T00:56:46.987Z,57.10
2019-03-24T00:59:16.749Z,29.83
2019-03-24T01:01:46.729Z,42.93
2019-03-24T01:04:18.740Z,46.10
2019-03-24T01:06:48.577Z,30.17
2019-03-24T01:09:18.669Z,31.70
2019-03-24T01:11:48.589Z,34.83
2019-03-24T01:14:18.427Z,32.67
2019-03-24T01:16:48.297Z,28.23
2019-03-24T01:19:18.219Z,25.77
2019-03-24T01:21:48.218Z,9.53
2019-03-24T01:24:18.017Z,35.20
2019-03-24T01:26:48.078Z,30.13
2019-03-24T01:29:18.027Z,42.20
2019-03-24T01:31:47.851Z,30.87
2019-03-24T01:34:17.782Z,48.83
2019-03-24T01:36:47.622Z,35.87
2019-03-24T01:39:19.568Z,23.87
2019-03-24T01:41:49.511Z,51.83
2019-03-24T01:44:19.457Z,21.87
2019-03-24T01:46:49.393Z,25.80
2019-03-24T01:49:19.307Z,53.73
2019-03-24T01:51:49.196Z,44.93
2019-03-24T01:54:19.137Z,33.30
2019-03-24T01:56:48.914Z,37.67
2019-03-24T01:59:18.807Z,20.83
2019-03-24T02:01:48.528Z,22.63
2019-03-24T02:04:18.376Z,49.53
2019-03-24T02:06:48.330Z,54.67
2019-03-24T02:09:18.164Z,41.30
2019-03-24T02:11:47.919Z,55.93
2019-03-24T02:14:17.797Z,28.53
2019-03-24T02:16:49.443Z,24.37
2019-03-24T02:19:19.371Z,40.40
2019-03-24T02:21:49.188Z,13.83
2019-03-24T02:24:18.942Z,51.70
2019-03-24T02:26:49.001Z,26.37
2019-03-24T02:29:18.738Z,26.07
2019-03-24T02:31:48.637Z,35.53
2019-03-24T02:34:18.837Z,30.00
2019-03-24T02:36:48.647Z,29.50
2019-03-24T02:39:18.441Z,18.57
2019-03-24T02:41:48.402Z,45.27
2019-03-24T02:44:18.331Z,43.13
2019-03-24T02:46:48.241Z,61.53
2019-03-24T02:49:18.971Z,64.90
2019-03-24T02:51:48.807Z,12.70
2019-03-24T02:54:18.723Z,38.73
2019-03-24T02:56:48.647Z,53.67
2019-03-24T02:59:18.415Z,20.87
2019-03-24T03:01:48.229Z,34.73
2019-03-24T03:04:17.984Z,28.73
2019-03-24T03:06:47.770Z,48.83
2019-03-24T03:09:17.502Z,49.93
2019-03-24T03:11:47.487Z,41.50
2019-03-24T03:14:17.379Z,18.53
2019-03-24T03:16:47.267Z,50.20
2019-03-24T03:19:16.977Z,36.23
2019-03-24T03:21:46.873Z,33.27
2019-03-24T03:24:17.092Z,27.23
2019-03-24T03:26:47.030Z,36.63
2019-03-24T03:29:16.987Z,48.37
2019-03-24T03:31:46.855Z,27.00
2019-03-24T03:34:16.606Z,38.07
2019-03-24T03:36:46.454Z,37.90
2019-03-24T03:39:16.171Z,47.87
2019-03-24T03:41:46.089Z,66.77
2019-03-24T03:44:15.824Z,17.10
2019-03-24T03:46:52.526Z,28.70
2019-03-24T03:49:17.224Z,49.57
2019-03-24T03:51:47.090Z,26.07
2019-03-24T03:54:16.862Z,54.00
2019-03-24T03:56:46.668Z,34.37
2019-03-24T03:59:16.563Z,25.07
2019-03-24T04:01:46.315Z,46.43
2019-03-24T04:04:16.098Z,24.73
2019-03-24T04:06:46.760Z,25.93
2019-03-24T04:09:16.647Z,18.70
2019-03-24T04:11:46.578Z,36.80
2019-03-24T04:14:16.414Z,23.73
2019-03-24T04:16:46.178Z,27.60
2019-03-24T04:19:16.108Z,28.60
2019-03-24T04:21:45.991Z,20.67
2019-03-24T04:24:15.996Z,17.77
2019-03-24T04:26:48.796Z,14.50
2019-03-24T04:29:18.761Z,35.93
2019-03-24T04:31:48.649Z,33.60
2019-03-24T04:34:18.523Z,22.80
2019-03-24T04:36:48.704Z,24.67
2019-03-24T04:39:18.498Z,78.60
2019-03-24T04:41:48.427Z,19.73
2019-03-24T04:44:18.263Z,43.33
2019-03-24T04:46:48.101Z,54.57
2019-03-24T04:49:17.994Z,25.27
2019-03-24T04:51:47.792Z,21.80
2019-03-24T04:54:17.599Z,35.37
2019-03-24T04:56:47.609Z,15.37
2019-03-24T04:59:17.575Z,46.53
2019-03-24T05:01:47.888Z,43.83
2019-03-24T05:04:17.702Z,34.10
2019-03-24T05:06:47.680Z,12.27
2019-03-24T05:09:18.047Z,50.47
2019-03-24T05:11:52.130Z,28.37
2019-03-24T05:14:22.058Z,25.60
2019-03-24T05:16:53.033Z,29.83
2019-03-24T05:19:22.935Z,36.47
2019-03-24T05:21:52.889Z,66.63
2019-03-24T05:24:22.808Z,50.73
2019-03-24T05:26:52.661Z,78.77
2019-03-24T05:29:22.602Z,54.67
2019-03-24T05:31:52.494Z,34.70
2019-03-24T05:34:22.293Z,42.90
2019-03-24T05:36:52.276Z,50.70
2019-03-24T05:39:23.650Z,43.97
2019-03-24T05:41:53.485Z,32.30
2019-03-24T05:44:23.424Z,63.27
2019-03-24T05:46:53.439Z,56.67
2019-03-24T05:49:23.446Z,39.43
2019-03-24T05:51:54.148Z,72.53
2019-03-24T05:54:24.053Z,90.27
2019-03-24T05:56:53.995Z,53.77
2019-03-24T05:59:24.252Z,69.17
2019-03-24T06:01:54.537Z,82.43
2019-03-24T06:04:24.424Z,58.57
2019-03-24T06:06:54.345Z,56.13
2019-03-24T06:09:24.572Z,72.27
2019-03-24T06:11:54.437Z,51.30
2019-03-24T06:14:24.326Z,60.47
2019-03-24T06:16:54.245Z,69.77
2019-03-24T06:19:24.135Z,73.77
2019-03-24T06:21:54.074Z,87.80
2019-03-24T06:24:23.987Z,66.60
2019-03-24T06:26:53.829Z,57.63
2019-03-24T06:29:23.675Z,105.97
2019-03-24T06:31:53.490Z,58.93
2019-03-24T06:34:23.634Z,70.97
2019-03-24T06:36:53.863Z,39.13
2019-03-24T06:39:23.618Z,70.67
2019-03-24T06:41:53.561Z,72.23
2019-03-24T06:44:23.480Z,95.70
2019-03-24T06:46:53.300Z,76.77
2019-03-24T06:49:23.103Z,100.27
2019-03-24T06:51:52.911Z,61.93
2019-03-24T06:54:22.812Z,52.17
2019-03-24T06:56:52.634Z,48.77
2019-03-24T06:59:22.518Z,52.97
2019-03-24T07:01:52.414Z,71.27
2019-03-24T07:04:22.330Z,85.37
2019-03-24T07:06:52.190Z,56.97
2019-03-24T07:09:22.047Z,71.60
2019-03-24T07:11:51.951Z,108.40
2019-03-24T07:14:21.883Z,61.63
2019-03-24T07:16:51.744Z,54.73
2019-03-24T07:19:21.609Z,71.60
2019-03-24T07:21:51.397Z,56.43
2019-03-24T07:24:21.256Z,67.23
2019-03-24T07:26:51.006Z,76.67
2019-03-24T07:29:20.829Z,68.43
2019-03-24T07:31:50.668Z,71.47
2019-03-24T07:34:20.606Z,82.63
2019-03-24T07:36:50.346Z,57.70
2019-03-24T07:39:20.271Z,68.03
2019-03-24T07:41:50.140Z,44.83
2019-03-24T07:44:20.077Z,44.27
2019-03-24T07:46:50.019Z,74.40
2019-03-24T07:49:19.876Z,39.60
2019-03-24T07:51:49.767Z,41.83
2019-03-24T07:54:19.600Z,66.83
2019-03-24T07:56:49.497Z,76.27
2019-03-24T07:59:19.415Z,39.87
2019-03-24T08:01:49.431Z,63.37
2019-03-24T08:04:19.324Z,56.03
2019-03-24T08:06:49.568Z,41.87
2019-03-24T08:09:19.371Z,58.37
2019-03-24T08:11:49.251Z,37.17
2019-03-24T08:14:19.019Z,42.40
2019-03-24T08:16:48.974Z,45.90
2019-03-24T08:19:18.841Z,53.20
2019-03-24T08:21:48.727Z,38.67
2019-03-24T08:24:18.565Z,66.20
2019-03-24T08:26:48.465Z,34.87
2019-03-24T08:29:18.428Z,33.43
2019-03-24T08:31:48.248Z,42.10
2019-03-24T08:34:18.067Z,34.30
2019-03-24T08:36:48.015Z,69.20
2019-03-24T08:39:17.950Z,32.57
2019-03-24T08:41:47.749Z,43.53
2019-03-24T08:44:17.628Z,58.37
2019-03-24T08:46:48.252Z,32.83
2019-03-24T08:49:18.143Z,43.40
2019-03-24T08:51:48.034Z,41.40
2019-03-24T08:54:17.941Z,39.20
2019-03-24T08:56:47.804Z,89.10
2019-03-24T08:59:17.664Z,31.80
2019-03-24T09:01:47.497Z,45.70
2019-03-24T09:04:17.437Z,44.93
2019-03-24T09:06:47.420Z,52.67
2019-03-24T09:09:17.281Z,39.47
2019-03-24T09:11:47.133Z,49.70
2019-03-24T09:14:17.029Z,37.40
2019-03-24T09:16:46.949Z,30.07
2019-03-24T09:19:16.818Z,40.03
2019-03-24T09:21:46.681Z,40.03
2019-03-24T09:24:16.579Z,52.03
2019-03-24T09:26:46.466Z,30.63
2019-03-24T09:29:16.247Z,58.40
2019-03-24T09:31:47.037Z,28.33
2019-03-24T09:34:16.962Z,23.67
2019-03-24T09:36:46.877Z,45.47
2019-03-24T09:39:16.762Z,35.17
2019-03-24T09:41:46.671Z,24.10
2019-03-24T09:44:16.482Z,38.70
2019-03-24T09:46:46.368Z,24.93
2019-03-24T09:49:16.149Z,34.80
2019-03-24T09:51:46.015Z,20.10
2019-03-24T09:54:15.842Z,23.90
2019-03-24T09:56:45.730Z,30.07
2019-03-24T09:59:15.533Z,22.13
2019-03-24T10:01:45.408Z,22.83
2019-03-24T10:04:15.220Z,25.80
2019-03-24T10:06:45.197Z,35.87
2019-03-24T10:09:15.027Z,22.57
2019-03-24T10:11:44.860Z,19.20
2019-03-24T10:14:14.677Z,23.13
2019-03-24T10:16:44.618Z,24.07
2019-03-24T10:19:14.637Z,21.70
2019-03-24T10:21:44.495Z,16.30
2019-03-24T10:24:14.282Z,25.27
2019-03-24T10:26:44.303Z,19.93
2019-03-24T10:29:14.205Z,19.33
2019-03-24T10:31:44.208Z,20.10
2019-03-24T10:34:14.011Z,16.67
2019-03-24T10:36:43.991Z,9.30
2019-03-24T10:39:13.868Z,19.53
2019-03-24T10:41:43.679Z,15.47
2019-03-24T10:44:13.499Z,22.87
2019-03-24T10:46:43.442Z,12.27
2019-03-24T10:49:24.109Z,10.60
2019-03-24T10:51:44.984Z,16.03
2019-03-24T10:54:14.884Z,14.37
2019-03-24T10:56:44.783Z,10.93
2019-03-24T10:59:14.737Z,10.70
2019-03-24T11:01:44.697Z,10.67
2019-03-24T11:04:15.978Z,21.50
2019-03-24T11:06:46.229Z,13.03
2019-03-24T11:09:16.153Z,15.97
2019-03-24T11:11:45.947Z,11.80
2019-03-24T11:14:15.913Z,5.97
2019-03-24T11:16:45.889Z,9.00
2019-03-24T11:19:15.832Z,13.63
2019-03-24T11:21:45.738Z,18.13
2019-03-24T11:24:15.657Z,23.67
2019-03-24T11:26:45.468Z,12.30
2019-03-24T11:29:15.377Z,12.03
2019-03-24T11:31:45.332Z,8.40
2019-03-24T11:34:15.171Z,10.73
2019-03-24T11:36:44.964Z,10.93
2019-03-24T11:39:14.822Z,9.40
2019-03-24T11:41:44.627Z,26.87
2019-03-24T11:44:14.620Z,19.63
2019-03-24T11:46:44.910Z,3.90
2019-03-24T11:49:21.110Z,17.70
2019-03-24T11:51:51.120Z,6.07
2019-03-24T11:54:20.982Z,4.87
2019-03-24T11:56:50.909Z,6.50
2019-03-24T11:59:20.857Z,4.70
2019-03-24T12:01:50.822Z,5.50
2019-03-24T12:04:20.796Z,18.20
2019-03-24T12:06:50.881Z,4.67
2019-03-24T12:09:20.752Z,8.83
2019-03-24T12:11:50.802Z,3.93
2019-03-24T12:14:20.720Z,10.30
2019-03-24T12:16:50.678Z,9.33
2019-03-24T12:19:20.693Z,5.67
2019-03-24T12:21:50.662Z,11.17
2019-03-24T12:24:20.651Z,7.10
2019-03-24T12:26:50.564Z,6.70
2019-03-24T12:29:20.425Z,4.40
2019-03-24T12:31:50.341Z,4.40
2019-03-24T12:34:20.286Z,7.80
2019-03-24T12:36:50.281Z,18.00
2019-03-24T12:39:20.455Z,5.80
2019-03-24T12:41:50.519Z,17.53
2019-03-24T12:44:20.497Z,8.23
2019-03-24T12:46:50.495Z,10.07
2019-03-24T12:49:20.633Z,13.43
2019-03-24T12:51:50.699Z,10.60
2019-03-24T12:54:20.654Z,7.00
2019-03-24T12:56:50.500Z,12.23
2019-03-24T12:59:20.455Z,21.07
2019-03-24T13:01:52.837Z,13.83
2019-03-24T13:04:22.581Z,10.40
2019-03-24T13:06:52.719Z,24.67
2019-03-24T13:09:22.741Z,15.23
2019-03-24T13:11:55.219Z,8.53
2019-03-24T13:14:25.224Z,10.10
2019-03-24T13:16:55.188Z,17.00
2019-03-24T13:19:25.034Z,22.23
2019-03-24T13:21:55.084Z,11.10
2019-03-24T13:24:24.897Z,12.73
2019-03-24T13:26:54.889Z,10.30
2019-03-24T13:29:25.081Z,17.67
2019-03-24T13:31:55.036Z,13.60
2019-03-24T13:34:25.187Z,26.07
2019-03-24T13:36:55.190Z,18.80
2019-03-24T13:39:25.236Z,16.93
2019-03-24T13:41:55.268Z,7.07
2019-03-24T13:44:25.352Z,39.80
2019-03-24T13:46:55.378Z,15.10
2019-03-24T13:49:25.486Z,9.73
2019-03-24T13:51:55.525Z,12.03
2019-03-24T13:54:25.523Z,14.13
2019-03-24T13:56:55.633Z,24.40
2019-03-24T13:59:26.383Z,12.27
2019-03-24T14:01:56.232Z,8.67
2019-03-24T14:04:26.329Z,17.73
2019-03-24T14:06:56.367Z,9.37
2019-03-24T14:09:26.405Z,10.50
2019-03-24T14:11:56.367Z,6.63
2019-03-24T14:14:26.506Z,4.97
2019-03-24T14:16:56.743Z,9.63
2019-03-24T14:19:31.342Z,17.43
2019-03-24T14:22:01.402Z,9.00
2019-03-24T14:24:31.575Z,10.27
2019-03-24T14:27:01.548Z,8.00
2019-03-24T14:29:31.508Z,9.17
2019-03-24T14:32:01.670Z,5.87
2019-03-24T14:34:31.840Z,7.10
2019-03-24T14:37:01.845Z,12.43
2019-03-24T14:39:32.028Z,15.50
2019-03-24T14:42:02.052Z,27.97
2019-03-24T14:44:32.234Z,4.37
2019-03-24T14:47:02.429Z,18.83
2019-03-24T14:49:32.451Z,13.23
2019-03-24T14:52:02.718Z,4.77
2019-03-24T14:54:32.920Z,13.37
2019-03-24T14:57:03.127Z,11.23
2019-03-24T14:59:34.212Z,14.37
2019-03-24T15:02:04.556Z,10.00
2019-03-24T15:04:34.722Z,7.07
2019-03-24T15:07:04.731Z,6.87
2019-03-24T15:09:35.057Z,11.10
2019-03-24T15:12:05.181Z,12.70
2019-03-24T15:14:35.239Z,5.00
2019-03-24T15:17:05.625Z,9.00
2019-03-24T15:19:35.828Z,7.37
2019-03-24T15:22:06.161Z,9.00
2019-03-24T15:24:36.375Z,5.73
2019-03-24T15:27:06.665Z,5.67
2019-03-24T15:29:36.919Z,4.60
2019-03-24T15:32:07.110Z,6.93
2019-03-24T15:34:37.330Z,4.83
2019-03-24T15:37:07.584Z,3.73
2019-03-24T15:39:37.714Z,5.30
2019-03-24T15:42:07.966Z,19.13
2019-03-24T15:44:38.151Z,4.33
2019-03-24T15:47:08.217Z,4.90
2019-03-24T15:49:38.328Z,7.47
2019-03-24T15:52:08.532Z,8.63
2019-03-24T15:54:38.781Z,8.63
2019-03-24T15:57:09.011Z,12.00
2019-03-24T15:59:39.257Z,15.53
2019-03-24T16:02:09.612Z,6.93
2019-03-24T16:04:39.798Z,6.63
2019-03-24T16:07:10.052Z,15.97
2019-03-24T16:09:40.334Z,7.17
2019-03-24T16:12:10.651Z,3.87
2019-03-24T16:14:41.009Z,16.77
2019-03-24T16:17:11.389Z,6.63
2019-03-24T16:19:41.537Z,11.63
2019-03-24T16:22:11.939Z,9.53
2019-03-24T16:24:42.166Z,6.30
2019-03-24T16:27:12.400Z,4.90
2019-03-24T16:29:42.619Z,8.30
2019-03-24T16:32:12.779Z,3.90
2019-03-24T16:34:43.020Z,8.47
2019-03-24T16:37:13.637Z,4.40
2019-03-24T16:39:44.045Z,10.20
2019-03-24T16:42:14.181Z,12.77
2019-03-24T16:44:44.345Z,6.53
2019-03-24T16:47:14.630Z,22.57
2019-03-24T16:49:44.911Z,9.70
2019-03-24T16:52:15.007Z,14.73
2019-03-24T16:54:45.211Z,12.00
2019-03-24T16:57:15.545Z,9.67
2019-03-24T16:59:45.728Z,3.40
2019-03-24T17:02:16.015Z,34.10
2019-03-24T17:04:46.255Z,13.90
2019-03-24T17:07:16.887Z,11.50
2019-03-24T17:09:46.999Z,9.40
2019-03-24T17:12:17.163Z,9.63
2019-03-24T17:14:47.451Z,8.20
2019-03-24T17:17:17.635Z,9.27
2019-03-24T17:19:50.168Z,12.97
2019-03-24T17:22:20.345Z,17.37
2019-03-24T17:24:50.467Z,22.03
2019-03-24T17:27:20.724Z,5.53
2019-03-24T17:29:51.059Z,10.00
2019-03-24T17:32:21.346Z,11.63
2019-03-24T17:34:51.428Z,5.80
2019-03-24T17:37:21.727Z,4.67
2019-03-24T17:39:51.960Z,3.87
2019-03-24T17:42:22.179Z,13.80
2019-03-24T17:44:52.583Z,13.53
2019-03-24T17:47:22.799Z,9.87
2019-03-24T17:49:52.923Z,8.43
2019-03-24T17:52:23.143Z,18.63
2019-03-24T17:54:53.505Z,4.50
2019-03-24T17:57:24.006Z,4.73
2019-03-24T17:59:54.367Z,25.77
2019-03-24T18:02:24.660Z,10.53
2019-03-24T18:04:54.867Z,16.30
2019-03-24T18:07:25.092Z,10.37
2019-03-24T18:09:55.248Z,6.40
2019-03-24T18:12:25.465Z,2.60
2019-03-24T18:14:55.702Z,21.23
2019-03-24T18:17:28.332Z,4.50
2019-03-24T18:20:00.335Z,13.97
2019-03-24T18:22:30.971Z,13.83
2019-03-24T18:25:01.248Z,7.67
2019-03-24T18:27:31.411Z,24.00
2019-03-24T18:30:01.699Z,9.90
2019-03-24T18:32:31.876Z,3.37
2019-03-24T18:35:02.243Z,17.13
2019-03-24T18:37:32.520Z,15.47
2019-03-24T18:40:02.953Z,6.20
2019-03-24T18:42:33.137Z,3.90
2019-03-24T18:45:04.562Z,11.07
2019-03-24T18:47:34.870Z,9.03
2019-03-24T18:50:16.914Z,11.03
2019-03-24T18:52:47.167Z,17.87
2019-03-24T18:55:17.442Z,12.23
2019-03-24T18:57:47.595Z,7.77
2019-03-24T19:00:18.700Z,19.03
2019-03-24T19:02:49.261Z,14.93
2019-03-24T19:05:19.569Z,4.93
2019-03-24T19:07:52.306Z,11.83
2019-03-24T19:10:23.768Z,17.77
2019-03-24T19:12:54.100Z,17.17
2019-03-24T19:15:24.507Z,7.43
2019-03-24T19:17:55.740Z,22.17
2019-03-24T19:20:25.986Z,9.83
2019-03-24T19:22:56.307Z,9.53
2019-03-24T19:25:26.700Z,26.47
2019-03-24T19:27:57.028Z,10.40
2019-03-24T19:30:38.563Z,12.63
2019-03-24T19:33:09.103Z,10.77
2019-03-24T19:35:43.221Z,8.30
2019-03-24T19:38:14.540Z,18.03
2019-03-24T19:40:44.785Z,17.03
2019-03-24T19:43:14.919Z,15.63
2019-03-24T19:45:45.357Z,9.80
2019-03-24T19:48:15.586Z,15.63
2019-03-24T19:50:45.718Z,20.53
2019-03-24T19:53:16.023Z,13.73
2019-03-24T19:55:46.193Z,14.10
2019-03-24T19:58:16.504Z,6.60
2019-03-24T20:00:46.669Z,12.23
2019-03-24T20:03:16.809Z,23.07
2019-03-24T20:05:47.204Z,8.40
2019-03-24T20:08:17.480Z,28.30
2019-03-24T20:10:47.780Z,18.87
2019-03-24T20:13:20.460Z,13.63
2019-03-24T20:15:50.907Z,8.73
2019-03-24T20:18:21.987Z,15.67
2019-03-24T20:20:52.308Z,15.50
2019-03-24T20:23:22.721Z,10.57
2019-03-24T20:25:53.036Z,5.57
2019-03-24T20:28:23.984Z,12.53
2019-03-24T20:30:54.743Z,11.17
2019-03-24T20:33:24.963Z,6.43
2019-03-24T20:35:55.134Z,28.03
2019-03-24T20:38:25.408Z,10.00
2019-03-24T20:40:56.850Z,13.03
2019-03-24T20:43:27.529Z,14.93
2019-03-24T20:45:57.844Z,22.03
2019-03-24T20:48:30.971Z,26.97
2019-03-24T20:51:01.192Z,11.73
2019-03-24T20:53:31.433Z,18.80
2019-03-24T20:56:01.588Z,29.90
2019-03-24T20:58:32.207Z,10.60
2019-03-24T21:01:02.470Z,9.13
2019-03-24T21:03:32.646Z,12.10
2019-03-24T21:06:03.748Z,27.67
2019-03-24T21:08:34.054Z,41.23
2019-03-24T21:11:04.410Z,11.70
2019-03-24T21:13:34.670Z,28.83
2019-03-24T21:16:05.169Z,6.23
2019-03-24T21:18:35.399Z,17.43
2019-03-24T21:21:05.634Z,18.63
2019-03-24T21:23:35.790Z,8.03
2019-03-24T21:26:05.947Z,17.17
2019-03-24T21:28:36.168Z,12.07
2019-03-24T21:31:06.394Z,31.53
2019-03-24T21:33:36.706Z,28.43
2019-03-24T21:36:07.022Z,20.57
2019-03-24T21:38:37.085Z,17.47
2019-03-24T21:41:07.350Z,15.63
2019-03-24T21:43:37.546Z,25.80
2019-03-24T21:46:07.653Z,20.30
2019-03-24T21:48:38.223Z,13.43
2019-03-24T21:51:08.305Z,34.30
2019-03-24T21:53:40.958Z,28.93
2019-03-24T21:56:10.304Z,13.70
2019-03-24T21:58:40.324Z,17.87
2019-03-24T22:01:10.541Z,12.00
2019-03-24T22:03:40.551Z,8.53
2019-03-24T22:06:10.806Z,42.17
2019-03-24T22:08:40.991Z,46.23
2019-03-24T22:11:10.993Z,9.80
2019-03-24T22:13:40.890Z,9.47
2019-03-24T22:16:10.727Z,5.40
2019-03-24T22:18:40.574Z,5.70
2019-03-24T22:21:10.372Z,20.60
2019-03-24T22:23:51.647Z,17.23
2019-03-24T22:26:11.857Z,16.60
2019-03-24T22:28:41.841Z,18.83
2019-03-24T22:31:11.682Z,12.87
2019-03-24T22:33:41.627Z,48.73
2019-03-24T22:36:11.968Z,22.73
2019-03-24T22:38:41.912Z,5.63
2019-03-24T22:41:11.848Z,10.67
2019-03-24T22:43:42.801Z,32.37
2019-03-24T22:46:12.636Z,12.00
2019-03-24T22:48:42.545Z,25.03
2019-03-24T22:51:12.364Z,26.93
2019-03-24T22:53:42.304Z,18.63
2019-03-24T22:56:12.141Z,16.90
2019-03-24T22:58:42.064Z,16.13
2019-03-24T23:01:12.111Z,37.90
2019-03-24T23:03:42.073Z,17.20
2019-03-24T23:06:11.990Z,9.50
2019-03-24T23:08:41.848Z,22.73
2019-03-24T23:11:11.820Z,20.73
2019-03-24T23:13:41.650Z,31.43
2019-03-24T23:16:11.465Z,21.93
2019-03-24T23:18:41.393Z,7.90
2019-03-24T23:21:11.215Z,6.10
2019-03-24T23:23:41.188Z,12.20
2019-03-24T23:26:11.110Z,28.93
2019-03-24T23:28:41.028Z,10.53
2019-03-24T23:31:10.892Z,14.80
2019-03-24T23:33:40.659Z,23.30
2019-03-24T23:36:10.617Z,18.17
2019-03-24T23:38:40.470Z,7.17
2019-03-24T23:41:10.463Z,16.37
2019-03-24T23:43:40.158Z,20.73
2019-03-24T23:46:09.974Z,23.67
2019-03-24T23:48:39.829Z,9.43
2019-03-24T23:51:09.732Z,13.60
2019-03-24T23:53:39.665Z,5.50
2019-03-24T23:56:09.632Z,18.53
2019-03-24T23:58:41.108Z,10.20
